Time;durP1;ratioP1;P1;durP2;ratioP2;P2;SDS_P1;SDS_P2;PMS_P1;PMS_P2;Temp;Humidity;BMP_temperature;BMP_pressure;BME280_temperature;BME280_humidity;BME280_pressure;Samples;Min_cycle;Max_cycle;Signal;HPM_P1;HPM_P2
2023/11/24 00:02:13;;;;;;;4.50;1.30;;;;;;;7.60;88.64;99906.28;5054078;28;20618;-80
2023/11/24 00:04:40;;;;;;;8.57;1.10;;;;;;;7.49;87.99;99914.25;5055004;28;20226;-80
2023/11/24 00:07:07;;;;;;;3.40;1.20;;;;;;;7.35;88.32;99909.25;5054233;28;20278;-80
2023/11/24 00:09:35;;;;;;;5.87;1.77;;;;;;;7.68;87.12;99919.16;5054732;28;20706;-80
2023/11/24 00:12:01;;;;;;;4.83;1.60;;;;;;;7.66;86.07;99962.47;5054906;28;20241;-81
2023/11/24 00:14:28;;;;;;;5.87;1.40;;;;;;;7.58;85.99;99972.13;5058448;28;20206;-80
2023/11/24 00:16:54;;;;;;;11.57;1.93;;;;;;;7.70;86.17;99977.13;5058511;28;20242;-80
2023/11/24 00:19:22;;;;;;;8.93;2.03;;;;;;;7.52;85.54;99971.31;5058888;28;20671;-80
2023/11/24 00:21:49;;;;;;;6.50;1.60;;;;;;;7.49;86.90;99975.69;5057982;28;20238;-80
2023/11/24 00:24:16;;;;;;;5.17;1.27;;;;;;;7.55;86.92;99953.09;5058982;28;20294;-80
2023/11/24 00:26:43;;;;;;;6.53;1.83;;;;;;;7.64;87.24;99941.72;5058933;28;20206;-81
2023/11/24 00:29:10;;;;;;;5.33;1.70;;;;;;;7.43;87.62;99921.25;5058256;28;20219;-80
2023/11/24 00:31:37;;;;;;;10.77;2.03;;;;;;;7.56;87.83;99940.97;5058201;28;20204;-81
2023/11/24 00:34:04;;;;;;;5.53;1.50;;;;;;;7.58;87.93;99921.03;5058375;28;20233;-81
2023/11/24 00:36:32;;;;;;;8.87;1.90;;;;;;;7.61;88.72;99905.41;5058500;28;20568;-81
2023/11/24 00:38:58;;;;;;;8.97;2.77;;;;;;;7.66;88.34;99887.16;5059346;28;20219;-78
2023/11/24 00:41:27;;;;;;;7.90;2.00;;;;;;;7.55;89.46;99889.91;5058248;28;20203;-79
2023/11/24 00:43:54;;;;;;;3.40;1.60;;;;;;;7.24;91.36;99838.44;5059032;28;20245;-79
2023/11/24 00:46:21;;;;;;;8.30;1.57;;;;;;;7.32;93.59;99821.00;5058761;28;20204;-79
2023/11/24 00:48:49;;;;;;;4.73;1.20;;;;;;;6.87;96.24;99770.66;5059738;28;20221;-79
2023/11/24 00:51:15;;;;;;;8.50;1.60;;;;;;;7.07;98.05;99718.47;5059005;28;20204;-80
2023/11/24 00:53:43;;;;;;;7.70;1.73;;;;;;;7.00;100.00;99677.91;5060221;28;20208;-80
2023/11/24 00:56:09;;;;;;;7.43;2.13;;;;;;;7.17;100.00;99642.16;5059538;28;20229;-79
2023/11/24 00:58:36;;;;;;;11.57;2.27;;;;;;;6.76;100.00;99584.94;5058621;28;20231;-80
2023/11/24 01:01:04;;;;;;;8.23;1.90;;;;;;;6.83;100.00;99532.94;5058444;28;20769;-80
2023/11/24 01:03:31;;;;;;;7.63;2.13;;;;;;;6.78;100.00;99521.78;5059633;28;20257;-80
2023/11/24 01:05:57;;;;;;;6.83;1.60;;;;;;;6.60;100.00;99552.38;5058299;28;20259;-80
2023/11/24 01:08:25;;;;;;;7.33;1.50;;;;;;;6.51;100.00;99597.44;5058758;28;20216;-80
2023/11/24 01:10:55;;;;;;;7.07;1.30;;;;;;;6.65;99.41;99630.94;5059153;28;20212;-80
2023/11/24 01:13:21;;;;;;;4.93;1.40;;;;;;;6.56;98.35;99659.59;5058494;28;20207;-80
2023/11/24 01:15:48;;;;;;;4.70;1.33;;;;;;;6.49;99.10;99661.44;5059474;28;20593;-80
2023/11/24 01:18:14;;;;;;;6.43;1.17;;;;;;;6.51;97.79;99666.59;5059181;28;20247;-80
2023/11/24 01:20:41;;;;;;;5.73;1.30;;;;;;;6.51;97.83;99669.19;5058996;28;20231;-80
2023/11/24 01:23:07;;;;;;;3.47;1.17;;;;;;;6.35;97.23;99686.69;5058982;28;20209;-80
2023/11/24 01:25:34;;;;;;;3.93;1.20;;;;;;;6.30;98.36;99686.78;5059882;28;20203;-80
2023/11/24 01:28:02;;;;;;;4.53;0.97;;;;;;;6.35;98.20;99694.47;5059719;28;20227;-80
2023/11/24 01:30:28;;;;;;;3.90;1.00;;;;;;;6.64;97.71;99688.88;5059236;28;20197;-80
2023/11/24 01:32:54;;;;;;;3.80;1.10;;;;;;;6.53;96.74;99721.88;5060124;28;20260;-81
2023/11/24 01:35:21;;;;;;;7.13;1.10;;;;;;;6.54;96.57;99724.44;5059056;28;20268;-80
2023/11/24 01:37:47;;;;;;;3.73;1.20;;;;;;;6.68;96.80;99724.25;5059148;28;20238;-80
2023/11/24 01:40:17;;;;;;;6.40;1.30;;;;;;;6.61;95.76;99738.19;5059250;28;20207;-80
2023/11/24 01:42:44;;;;;;;10.63;1.97;;;;;;;6.58;94.41;99751.19;5059303;28;20663;-79
2023/11/24 01:45:11;;;;;;;9.97;1.30;;;;;;;6.42;95.13;99747.06;5060175;28;20211;-81
2023/11/24 01:47:38;;;;;;;11.93;1.70;;;;;;;6.68;94.48;99732.03;5057799;28;20226;-80
2023/11/24 01:50:07;;;;;;;9.70;2.10;;;;;;;6.48;93.17;99749.59;5056177;28;20222;-80
2023/11/24 01:52:33;;;;;;;8.80;1.70;;;;;;;6.73;92.67;99757.91;5056122;28;20211;-80
2023/11/24 01:55:01;;;;;;;9.43;2.87;;;;;;;6.45;90.72;99802.34;5056320;28;20211;-80
2023/11/24 01:57:28;;;;;;;8.43;1.93;;;;;;;6.55;90.47;99813.47;5055687;28;20226;-80
2023/11/24 01:59:54;;;;;;;10.77;2.53;;;;;;;6.71;90.33;99825.34;5056124;28;20209;-80
2023/11/24 02:02:22;;;;;;;10.37;2.00;;;;;;;6.60;90.21;99839.31;5055860;28;20211;-80
2023/11/24 02:04:48;;;;;;;6.80;1.87;;;;;;;6.54;88.91;99851.50;5056516;28;20211;-78
2023/11/24 02:07:15;;;;;;;11.00;3.40;;;;;;;6.49;88.94;99853.28;5054937;28;20256;-79
2023/11/24 02:09:42;;;;;;;12.83;3.00;;;;;;;6.53;87.73;99880.88;5056050;28;20656;-80
2023/11/24 02:12:07;;;;;;;14.37;2.47;;;;;;;6.63;86.89;99897.19;5055271;28;20578;-79
2023/11/24 02:14:34;;;;;;;7.57;2.27;;;;;;;6.75;86.27;99917.78;5055920;28;20206;-80
2023/11/24 02:17:00;;;;;;;10.03;2.40;;;;;;;6.68;85.12;99955.06;5055254;28;20238;-80
2023/11/24 02:19:29;;;;;;;10.33;2.37;;;;;;;6.74;86.65;99931.66;5056009;28;20211;-81
2023/11/24 02:21:56;;;;;;;14.17;2.70;;;;;;;6.71;86.32;99942.06;5054978;28;20203;-81
2023/11/24 02:24:23;;;;;;;16.87;2.60;;;;;;;6.99;87.13;99922.72;5055873;28;20224;-80
2023/11/24 02:26:50;;;;;;;9.77;2.53;;;;;;;6.81;87.38;99906.50;5054970;28;20958;-80
2023/11/24 02:29:16;;;;;;;12.67;2.63;;;;;;;6.82;87.06;99907.34;5055944;28;20201;-80
2023/11/24 02:31:43;;;;;;;11.33;3.77;;;;;;;6.60;86.56;99915.41;5055544;28;20654;-81
2023/11/24 02:34:09;;;;;;;8.10;2.57;;;;;;;6.75;85.60;99914.34;5055250;28;20215;-79
2023/11/24 02:36:37;;;;;;;13.63;3.10;;;;;;;6.65;85.50;99942.13;5054618;28;20200;-80
2023/11/24 02:39:04;;;;;;;6.77;1.87;;;;;;;6.60;84.94;99948.22;5055884;28;20664;-80
2023/11/24 02:41:32;;;;;;;8.90;2.17;;;;;;;6.57;83.86;99957.75;5054547;28;20214;-81
2023/11/24 02:43:58;;;;;;;8.37;2.10;;;;;;;6.58;83.58;99974.22;5054979;28;20218;-79
2023/11/24 02:46:25;;;;;;;16.73;3.07;;;;;;;6.77;83.14;99985.22;5055213;28;20213;-82
2023/11/24 02:48:51;;;;;;;9.23;2.60;;;;;;;6.66;84.01;99987.06;5054904;28;20300;-81
2023/11/24 02:51:18;;;;;;;13.87;3.67;;;;;;;6.54;82.53;100026.94;5053966;28;20211;-81
2023/11/24 02:53:45;;;;;;;9.97;2.13;;;;;;;6.55;83.36;100023.50;5055171;28;20819;-82
2023/11/24 02:56:12;;;;;;;8.97;1.77;;;;;;;6.79;82.69;100014.59;5054784;28;20233;-80
2023/11/24 02:58:40;;;;;;;11.63;2.40;;;;;;;6.54;83.60;100025.22;5054409;28;20234;-80
2023/11/24 03:01:06;;;;;;;13.33;2.27;;;;;;;6.62;82.24;100027.75;5054361;28;20238;-81
2023/11/24 03:03:33;;;;;;;12.73;2.43;;;;;;;6.42;80.87;100051.28;5054599;28;20198;-81
2023/11/24 03:06:02;;;;;;;7.90;2.20;;;;;;;6.67;81.40;100051.91;5054068;28;20269;-81
2023/11/24 03:08:29;;;;;;;8.90;2.43;;;;;;;6.57;81.54;100050.25;5054869;28;20230;-80
2023/11/24 03:10:56;;;;;;;13.37;3.40;;;;;;;6.41;82.65;100057.31;5054665;28;20652;-80
2023/11/24 03:13:23;;;;;;;9.13;2.20;;;;;;;6.41;82.40;100036.56;5053945;28;20672;-79
2023/11/24 03:15:51;;;;;;;13.43;2.50;;;;;;;6.39;82.47;100029.69;5053675;28;20276;-81
2023/11/24 03:18:18;;;;;;;9.07;2.10;;;;;;;6.45;82.74;100022.72;5053967;28;20238;-80
2023/11/24 03:20:45;;;;;;;11.73;2.83;;;;;;;6.45;83.51;100017.53;5053799;28;20216;-79
2023/11/24 03:23:11;;;;;;;19.27;2.27;;;;;;;6.73;82.61;100009.47;5053420;28;20350;-82
2023/11/24 03:25:38;;;;;;;10.03;2.73;;;;;;;6.47;82.74;100012.34;5046204;28;20267;-80
2023/11/24 03:28:04;;;;;;;13.27;2.37;;;;;;;6.57;82.94;99994.06;5054527;28;20232;-80
2023/11/24 03:30:31;;;;;;;9.20;2.00;;;;;;;6.69;83.20;99977.53;5053708;28;20206;-79
2023/11/24 03:32:59;;;;;;;7.57;2.00;;;;;;;6.47;82.94;99984.66;5054557;28;20210;-79
2023/11/24 03:35:25;;;;;;;8.00;1.90;;;;;;;6.55;83.18;99963.84;5054073;28;20237;-80
2023/11/24 03:37:52;;;;;;;10.03;2.07;;;;;;;6.54;82.33;99969.88;5053382;28;20260;-79
2023/11/24 03:40:18;;;;;;;13.97;2.37;;;;;;;6.37;83.40;99964.88;5053773;28;20211;-77
2023/11/24 03:42:45;;;;;;;10.40;2.53;;;;;;;6.25;83.72;99968.44;5053706;28;20213;-80
2023/11/24 03:45:12;;;;;;;8.33;2.20;;;;;;;6.31;84.23;99947.66;5053139;28;20676;-82
2023/11/24 03:47:39;;;;;;;10.33;2.10;;;;;;;6.40;83.15;99944.09;5052512;28;20232;-80
2023/11/24 03:50:07;;;;;;;4.70;1.50;;;;;;;6.28;84.30;99920.91;5054087;28;20211;-80
2023/11/24 03:52:34;;;;;;;6.80;2.13;;;;;;;6.29;83.98;99928.66;5053309;28;20708;-79
2023/11/24 03:55:01;;;;;;;7.13;1.67;;;;;;;6.30;83.15;99930.41;5053898;28;20213;-80
2023/11/24 03:57:34;;;;;;;9.87;1.80;;;;;;;6.41;83.43;99932.88;5052779;28;20309;-81
2023/11/24 04:00:01;;;;;;;7.00;2.50;;;;;;;6.32;83.13;99935.53;5053695;28;20672;-82
2023/11/24 04:02:27;;;;;;;7.33;2.37;;;;;;;6.49;83.65;99907.72;5053632;28;20201;-80
2023/11/24 04:04:53;;;;;;;10.03;1.87;;;;;;;6.37;84.62;99894.91;5053809;28;20215;-79
2023/11/24 04:07:21;;;;;;;9.90;2.23;;;;;;;6.21;85.04;99870.03;5052879;28;20719;-80
2023/11/24 04:09:48;;;;;;;8.10;1.80;;;;;;;6.24;84.46;99868.22;5054363;28;20203;-80
2023/11/24 04:12:14;;;;;;;10.90;2.27;;;;;;;6.19;85.24;99859.66;5053101;28;20212;-80
2023/11/24 04:14:41;;;;;;;9.60;2.80;;;;;;;6.23;85.27;99832.00;5053779;28;20675;-82
2023/11/24 04:17:09;;;;;;;13.87;2.53;;;;;;;6.11;85.44;99823.47;5053483;28;20266;-82
2023/11/24 04:19:36;;;;;;;8.37;2.10;;;;;;;6.15;85.28;99819.13;5053242;28;20230;-82
2023/11/24 04:22:02;;;;;;;9.27;1.80;;;;;;;6.08;86.36;99823.47;5053246;28;20669;-81
2023/11/24 04:24:30;;;;;;;11.40;3.70;;;;;;;6.00;83.93;99851.22;5053346;28;20236;-80
2023/11/24 04:26:57;;;;;;;8.13;1.90;;;;;;;6.10;84.28;99877.88;5053601;28;20236;-82
2023/11/24 04:29:24;;;;;;;9.47;1.80;;;;;;;6.10;82.79;99880.47;5052590;28;20579;-81
2023/11/24 04:31:50;;;;;;;8.87;1.93;;;;;;;6.31;82.29;99890.63;5053335;28;20231;-80
2023/11/24 04:34:17;;;;;;;8.73;1.70;;;;;;;6.27;82.65;99886.34;5053637;28;20210;-80
2023/11/24 04:36:43;;;;;;;10.00;1.93;;;;;;;6.15;83.47;99887.34;5045220;28;20210;-81
2023/11/24 04:39:09;;;;;;;6.67;2.27;;;;;;;6.31;82.86;99900.16;5053675;28;20727;-82
2023/11/24 04:41:38;;;;;;;7.40;1.70;;;;;;;6.49;83.75;99907.72;5052907;28;20204;-80
2023/11/24 04:44:05;;;;;;;6.20;2.10;;;;;;;6.21;83.23;99901.97;5053655;28;20257;-79
2023/11/24 04:46:32;;;;;;;6.97;1.80;;;;;;;6.36;84.02;99870.72;5053655;28;20289;-81
2023/11/24 04:49:03;;;;;;;6.33;1.77;;;;;;;6.34;83.90;99874.19;5053698;28;20227;-80
2023/11/24 04:51:30;;;;;;;8.00;1.77;;;;;;;6.32;83.95;99860.38;5052610;28;20238;-81
2023/11/24 04:53:57;;;;;;;5.17;1.80;;;;;;;6.27;83.92;99855.25;5053252;28;20239;-80
2023/11/24 04:56:25;;;;;;;2.50;1.10;;;;;;;6.24;83.89;99876.00;5053702;28;20230;-79
2023/11/24 04:58:53;;;;;;;8.60;1.30;;;;;;;6.11;85.26;99848.53;5053679;28;20239;-81
2023/11/24 05:01:20;;;;;;;6.53;1.97;;;;;;;6.09;84.98;99821.78;5057058;28;20689;-80
2023/11/24 05:03:48;;;;;;;3.57;1.30;;;;;;;6.09;86.64;99803.63;5049779;28;20208;-80
2023/11/24 05:06:15;;;;;;;4.73;1.70;;;;;;;6.03;88.61;99791.59;5056551;28;20741;-80
2023/11/24 05:08:41;;;;;;;7.17;1.73;;;;;;;5.94;90.23;99761.44;5057467;28;20583;-81
2023/11/24 05:11:08;;;;;;;8.90;1.63;;;;;;;6.01;91.95;99701.84;5057575;28;20202;-80
2023/11/24 05:13:34;;;;;;;9.30;2.27;;;;;;;5.60;96.17;99633.22;5056958;28;20210;-80
2023/11/24 05:16:02;;;;;;;7.63;1.50;;;;;;;5.47;97.75;99555.72;5057479;28;20261;-80
2023/11/24 05:18:28;;;;;;;5.13;1.10;;;;;;;5.46;99.65;99502.25;5057123;28;20231;-79
2023/11/24 05:20:55;;;;;;;2.77;0.90;;;;;;;5.29;100.00;99465.38;5056975;28;20202;-80
2023/11/24 05:23:22;;;;;;;2.30;0.77;;;;;;;5.15;100.00;99444.84;5056898;28;20209;-79
2023/11/24 05:25:48;;;;;;;3.40;0.93;;;;;;;5.26;100.00;99442.13;5057637;28;20207;-80
2023/11/24 05:28:14;;;;;;;4.07;1.00;;;;;;;5.00;100.00;99440.75;5057326;28;20704;-80
2023/11/24 05:30:41;;;;;;;2.93;0.87;;;;;;;5.10;100.00;99419.06;5056762;28;20209;-80
2023/11/24 05:33:09;;;;;;;2.30;0.80;;;;;;;4.97;100.00;99412.31;5057560;28;20212;-80
2023/11/24 05:35:37;;;;;;;2.93;0.80;;;;;;;5.18;100.00;99403.44;5057268;28;20221;-80
2023/11/24 05:38:03;;;;;;;3.37;0.90;;;;;;;5.05;100.00;99409.63;5056594;28;20648;-80
2023/11/24 05:40:30;;;;;;;1.87;0.60;;;;;;;5.02;100.00;99409.69;5055438;28;20229;-80
2023/11/24 05:42:56;;;;;;;0.93;0.50;;;;;;;4.91;100.00;99410.66;5056836;28;20225;-80
2023/11/24 05:45:23;;;;;;;2.87;0.73;;;;;;;5.02;100.00;99401.94;5056878;28;20205;-80
2023/11/24 05:47:49;;;;;;;4.30;0.77;;;;;;;5.04;100.00;99400.19;5048341;28;20255;-81
2023/11/24 05:50:22;;;;;;;2.40;0.50;;;;;;;4.91;99.37;99426.19;5057661;28;20205;-80
2023/11/24 05:52:48;;;;;;;2.27;0.67;;;;;;;5.12;98.35;99443.16;5056928;28;20201;-81
2023/11/24 05:55:16;;;;;;;8.77;0.70;;;;;;;5.13;96.91;99454.38;5057417;28;20709;-80
2023/11/24 05:57:42;;;;;;;2.03;1.03;;;;;;;5.02;96.66;99464.84;5057005;28;20232;-80
2023/11/24 06:00:09;;;;;;;2.27;0.70;;;;;;;5.11;96.98;99476.81;5056602;28;20228;-80
2023/11/24 06:02:36;;;;;;;2.83;0.73;;;;;;;4.93;96.84;99470.13;5057137;28;20214;-80
2023/11/24 06:05:03;;;;;;;3.57;1.10;;;;;;;5.14;95.82;99469.88;5056877;28;20696;-80
2023/11/24 06:07:30;;;;;;;3.73;1.00;;;;;;;5.30;94.41;99491.22;5057345;28;20313;-81
2023/11/24 06:09:57;;;;;;;2.83;1.13;;;;;;;4.98;93.57;99523.50;5057020;28;20734;-80
2023/11/24 06:12:24;;;;;;;3.13;1.07;;;;;;;5.05;93.33;99529.47;5055905;28;20676;-81
2023/11/24 06:14:50;;;;;;;4.03;1.50;;;;;;;5.14;92.51;99570.75;5048914;28;20628;-80
2023/11/24 06:17:17;;;;;;;3.90;1.00;;;;;;;5.25;91.23;99582.72;5057016;28;20238;-81
2023/11/24 06:19:43;;;;;;;3.80;1.23;;;;;;;5.27;90.67;99601.66;5057179;28;20242;-81
2023/11/24 06:22:10;;;;;;;6.73;1.10;;;;;;;5.45;89.43;99624.78;5056561;28;20676;-81
2023/11/24 06:24:37;;;;;;;2.90;0.80;;;;;;;5.22;88.99;99650.88;5056319;28;20213;-81
2023/11/24 06:27:05;;;;;;;6.90;0.97;;;;;;;5.33;89.18;99663.69;5056671;28;20233;-80
2023/11/24 06:29:31;;;;;;;2.73;0.83;;;;;;;5.55;89.17;99654.84;5056768;28;20211;-81
2023/11/24 06:31:57;;;;;;;6.83;1.20;;;;;;;5.50;88.57;99681.66;5056166;28;20217;-80
2023/11/24 06:34:24;;;;;;;3.13;0.73;;;;;;;5.49;88.23;99691.16;5056737;28;20209;-80
2023/11/24 06:36:51;;;;;;;5.97;1.03;;;;;;;5.43;87.81;99704.16;5056388;28;20217;-80
2023/11/24 06:39:19;;;;;;;1.37;0.80;;;;;;;5.62;87.69;99717.75;5057558;28;20230;-80
2023/11/24 06:41:47;;;;;;;3.03;0.90;;;;;;;5.11;88.02;99730.31;5056018;28;20691;-80
2023/11/24 06:44:14;;;;;;;2.10;0.93;;;;;;;5.35;87.73;99721.47;5057233;28;20214;-80
2023/11/24 06:46:40;;;;;;;1.30;0.90;;;;;;;5.28;88.03;99728.44;5056239;28;20217;-80
2023/11/24 06:49:06;;;;;;;5.37;1.40;;;;;;;5.27;87.48;99731.91;5056514;28;20211;-80
2023/11/24 06:51:33;;;;;;;4.50;1.20;;;;;;;5.23;87.72;99737.97;5055806;28;20208;-81
2023/11/24 06:53:59;;;;;;;1.67;0.50;;;;;;;5.53;87.02;99744.59;5056853;28;20453;-81
2023/11/24 06:56:29;;;;;;;3.40;0.90;;;;;;;5.33;84.43;99774.97;5056048;28;20246;-80
2023/11/24 06:58:56;;;;;;;4.67;0.90;;;;;;;5.36;85.02;99798.25;5056684;28;20238;-81
2023/11/24 07:01:31;;;;;;;3.70;1.57;;;;;;;5.60;85.03;99783.38;5055532;28;20227;-80
2023/11/24 07:03:58;;;;;;;3.90;0.80;;;;;;;5.59;83.46;99811.00;5049390;28;20200;-81
2023/11/24 07:06:25;;;;;;;3.77;0.77;;;;;;;5.64;84.52;99813.53;5056519;28;20689;-80
2023/11/24 07:08:52;;;;;;;3.77;1.00;;;;;;;5.59;83.46;99831.72;5056468;28;20225;-80
2023/11/24 07:11:19;;;;;;;6.07;1.00;;;;;;;5.46;84.40;99830.09;5055908;28;20206;-80
2023/11/24 07:13:45;;;;;;;4.60;1.17;;;;;;;5.58;84.64;99820.47;5056671;28;20202;-80
2023/11/24 07:16:13;;;;;;;4.80;1.00;;;;;;;5.51;83.76;99829.19;5056221;28;20199;-81
2023/11/24 07:18:40;;;;;;;2.93;0.87;;;;;;;5.65;84.47;99823.91;5056460;28;20261;-80
2023/11/24 07:21:06;;;;;;;3.80;1.20;;;;;;;5.61;85.16;99803.19;5056519;28;20198;-81
2023/11/24 07:23:33;;;;;;;4.07;1.10;;;;;;;5.49;84.20;99817.09;5056195;28;20199;-80
2023/11/24 07:25:59;;;;;;;4.33;1.07;;;;;;;5.53;85.35;99788.63;5056905;28;20229;-81
2023/11/24 07:28:26;;;;;;;3.60;1.17;;;;;;;5.50;86.04;99773.09;5055784;28;20222;-81
2023/11/24 07:30:53;;;;;;;3.07;1.17;;;;;;;5.78;84.23;99780.59;5056379;28;20632;-81
2023/11/24 07:33:20;;;;;;;6.13;1.60;;;;;;;5.61;84.52;99804.09;5059439;28;20265;-80
2023/11/24 07:35:47;;;;;;;6.33;0.97;;;;;;;5.61;85.77;99798.91;5073232;28;20210;-80
2023/11/24 07:38:13;;;;;;;6.40;2.03;;;;;;;5.45;86.46;99790.41;5069660;28;20290;-79
2023/11/24 07:40:40;;;;;;;3.37;0.93;;;;;;;5.51;87.65;99761.88;5072125;28;20224;-80
2023/11/24 07:43:06;;;;;;;5.43;1.60;;;;;;;5.54;87.63;99733.38;5070679;28;20211;-80
2023/11/24 07:45:32;;;;;;;7.47;1.20;;;;;;;5.47;87.03;99726.56;5071215;28;20202;-79
2023/11/24 07:47:59;;;;;;;4.87;1.00;;;;;;;5.52;88.33;99693.69;5058271;28;20281;-81
2023/11/24 07:50:27;;;;;;;4.60;1.17;;;;;;;5.39;90.04;99671.41;5057299;28;20223;-80
2023/11/24 07:52:53;;;;;;;6.20;1.37;;;;;;;5.28;90.13;99629.25;5057352;28;20613;-80
2023/11/24 07:55:19;;;;;;;6.90;1.10;;;;;;;5.23;91.93;99607.75;5057122;28;20210;-79
2023/11/24 07:57:46;;;;;;;5.43;1.27;;;;;;;5.24;92.87;99575.84;5056629;28;20221;-80
2023/11/24 08:00:13;;;;;;;2.73;0.90;;;;;;;5.06;93.71;99556.22;5054619;28;20257;-81
2023/11/24 08:02:41;;;;;;;4.20;1.10;;;;;;;5.26;93.04;99530.09;5054801;28;20202;-81
2023/11/24 08:05:09;;;;;;;3.63;1.30;;;;;;;5.13;93.31;99529.38;5055151;28;20209;-80
2023/11/24 08:07:37;;;;;;;5.90;1.50;;;;;;;5.25;92.00;99521.50;5054837;28;20228;-80
2023/11/24 08:10:04;;;;;;;4.27;1.30;;;;;;;5.56;91.79;99532.28;5054729;28;20201;-81
2023/11/24 08:12:31;;;;;;;4.30;1.40;;;;;;;5.69;90.81;99550.25;5054742;28;20611;-80
2023/11/24 08:14:58;;;;;;;4.10;1.50;;;;;;;5.63;90.52;99550.34;5055127;28;20199;-81
2023/11/24 08:17:24;;;;;;;8.67;1.23;;;;;;;5.55;90.47;99553.91;5052740;28;20237;-81
2023/11/24 08:19:51;;;;;;;6.00;1.03;;;;;;;5.59;91.43;99552.13;5052162;28;20237;-80
2023/11/24 08:22:18;;;;;;;3.07;0.77;;;;;;;5.42;91.27;99561.84;5051945;28;20610;-81
2023/11/24 08:24:46;;;;;;;4.93;1.20;;;;;;;5.57;89.88;99554.72;5052838;28;20293;-80
2023/11/24 08:27:12;;;;;;;4.17;1.20;;;;;;;5.69;89.56;99573.53;5052821;28;20223;-81
2023/11/24 08:29:38;;;;;;;5.37;1.30;;;;;;;5.64;89.06;99573.63;5052220;28;20715;-80
2023/11/24 08:32:06;;;;;;;3.13;0.93;;;;;;;5.31;89.91;99575.75;5052569;28;20206;-81
2023/11/24 08:34:32;;;;;;;4.50;1.10;;;;;;;5.69;90.38;99551.13;5054312;28;20211;-81
2023/11/24 08:37:01;;;;;;;2.67;1.00;;;;;;;5.76;90.08;99551.88;5056152;28;20230;-80
2023/11/24 08:39:28;;;;;;;4.20;0.87;;;;;;;5.30;90.18;99568.84;5056934;28;20641;-80
2023/11/24 08:41:56;;;;;;;2.60;0.80;;;;;;;5.36;91.63;99566.19;5056510;28;20214;-80
2023/11/24 08:44:24;;;;;;;3.90;0.83;;;;;;;5.38;90.78;99541.16;5056550;28;20213;-81
2023/11/24 08:46:51;;;;;;;3.73;0.93;;;;;;;5.60;91.31;99525.34;5056110;28;20240;-81
2023/11/24 08:49:18;;;;;;;0.90;0.70;;;;;;;5.48;91.06;99525.50;5054167;28;20202;-82
2023/11/24 08:51:45;;;;;;;2.10;0.97;;;;;;;5.35;90.54;99530.84;5056061;28;20207;-82
2023/11/24 08:54:11;;;;;;;4.53;0.90;;;;;;;5.55;90.67;99540.09;5056950;28;20210;-81
2023/11/24 08:56:38;;;;;;;3.43;0.80;;;;;;;5.38;90.60;99530.78;5056744;28;20201;-80
2023/11/24 08:59:08;;;;;;;4.27;0.70;;;;;;;5.30;90.71;99527.47;5056389;28;20198;-80
2023/11/24 09:01:35;;;;;;;1.83;0.93;;;;;;;5.05;91.19;99506.19;5056201;28;20226;-81
2023/11/24 09:04:01;;;;;;;5.27;1.00;;;;;;;5.01;91.95;99491.56;5056709;28;20211;-81
2023/11/24 09:06:31;;;;;;;2.57;0.90;;;;;;;5.31;90.51;99497.25;5055770;28;20579;-81
2023/11/24 09:08:58;;;;;;;3.03;0.50;;;;;;;5.26;89.60;99512.00;5055664;28;20229;-81
2023/11/24 09:11:25;;;;;;;3.77;1.00;;;;;;;5.26;88.81;99520.59;5055965;28;20202;-80
2023/11/24 09:13:52;;;;;;;3.00;0.90;;;;;;;5.33;88.30;99547.25;5056676;28;20230;-81
2023/11/24 09:16:21;;;;;;;2.37;1.03;;;;;;;5.49;88.54;99546.22;5056688;28;20233;-81
2023/11/24 09:18:47;;;;;;;2.27;0.63;;;;;;;5.56;88.30;99560.78;5056734;28;20258;-80
2023/11/24 09:21:13;;;;;;;1.97;0.40;;;;;;;5.33;86.95;99581.78;5055694;28;20222;-81
2023/11/24 09:23:40;;;;;;;2.23;0.50;;;;;;;5.34;87.07;99580.88;5057237;28;20203;-81
2023/11/24 09:26:09;;;;;;;2.70;0.77;;;;;;;5.33;85.83;99617.13;5057016;28;20216;-81
2023/11/24 09:28:35;;;;;;;2.00;0.70;;;;;;;5.60;85.38;99622.88;5056343;28;20253;-80
2023/11/24 09:31:08;;;;;;;3.50;0.60;;;;;;;5.29;84.75;99633.56;5056469;28;20194;-79
2023/11/24 09:33:36;;;;;;;3.13;0.87;;;;;;;5.27;85.69;99633.59;5056456;28;20233;-81
2023/11/24 09:36:03;;;;;;;2.03;0.77;;;;;;;5.22;86.25;99613.81;5056212;28;20210;-81
2023/11/24 09:38:30;;;;;;;5.23;0.90;;;;;;;5.34;84.62;99635.22;5055716;28;20280;-80
2023/11/24 09:41:02;;;;;;;3.50;0.67;;;;;;;5.31;83.80;99662.84;5054963;28;20243;-81
2023/11/24 09:43:28;;;;;;;5.60;0.90;;;;;;;5.39;84.94;99663.63;5053878;28;20206;-80
2023/11/24 09:45:55;;;;;;;5.53;1.10;;;;;;;5.26;84.33;99668.09;5050924;28;20258;-78
2023/11/24 09:48:22;;;;;;;4.47;1.17;;;;;;;5.37;84.39;99665.38;5054103;28;20435;-80
2023/11/24 09:50:51;;;;;;;2.50;0.80;;;;;;;5.58;82.78;99678.09;5054008;28;20200;-80
2023/11/24 09:53:19;;;;;;;4.30;0.90;;;;;;;5.45;82.62;99686.88;5054618;28;20215;-81
2023/11/24 09:55:46;;;;;;;5.20;1.13;;;;;;;5.44;82.74;99684.31;5054981;28;20208;-80
2023/11/24 09:58:12;;;;;;;2.83;0.90;;;;;;;5.38;83.95;99682.63;5053889;28;20219;-80
2023/11/24 10:00:40;;;;;;;3.73;0.90;;;;;;;5.61;83.86;99661.69;5053290;28;20223;-79
2023/11/24 10:03:08;;;;;;;3.95;1.13;;;;;;;5.51;83.15;99660.06;5054027;28;20779;-80
2023/11/24 10:05:34;;;;;;;5.57;1.73;;;;;;;5.75;82.49;99664.97;5054584;28;20210;-79
2023/11/24 10:08:02;;;;;;;3.53;0.80;;;;;;;5.66;81.73;99703.06;5054913;28;20226;-80
2023/11/24 10:10:29;;;;;;;3.70;0.80;;;;;;;5.73;81.34;99718.50;5054743;28;20202;-80
2023/11/24 10:12:59;;;;;;;3.73;1.20;;;;;;;5.70;80.44;99708.19;5054641;28;20212;-79
2023/11/24 10:15:25;;;;;;;3.10;0.77;;;;;;;5.71;80.18;99728.03;5053917;28;20700;-80
2023/11/24 10:17:52;;;;;;;3.83;0.90;;;;;;;5.70;78.36;99766.88;5054595;28;20230;-78
2023/11/24 10:20:22;;;;;;;3.80;1.40;;;;;;;5.57;78.47;99799.81;5053286;28;20599;-79
2023/11/24 10:22:49;;;;;;;5.00;1.10;;;;;;;5.61;80.29;99760.06;5053784;28;20197;-79
2023/11/24 10:25:19;;;;;;;4.30;0.83;;;;;;;5.84;78.89;99759.81;5054450;28;20567;-80
2023/11/24 10:27:46;;;;;;;9.67;1.30;;;;;;;5.97;79.84;99760.59;5053348;28;20222;-79
2023/11/24 10:30:13;;;;;;;5.17;1.07;;;;;;;5.61;80.21;99748.84;5054159;28;20738;-79
2023/11/24 10:32:43;;;;;;;3.87;1.10;;;;;;;5.76;81.04;99726.22;5055632;28;20239;-81
2023/11/24 10:35:12;;;;;;;4.57;1.23;;;;;;;5.65;81.40;99711.69;5053730;28;20217;-81
2023/11/24 10:37:39;;;;;;;2.93;1.20;;;;;;;5.39;82.13;99699.88;5054812;28;20276;-80
2023/11/24 10:40:09;;;;;;;3.37;1.40;;;;;;;5.37;82.83;99676.59;5054823;28;20234;-80
2023/11/24 10:42:39;;;;;;;4.50;1.13;;;;;;;5.77;83.02;99633.88;5054351;28;20285;-81
2023/11/24 10:45:10;;;;;;;3.50;1.13;;;;;;;5.27;84.32;99612.91;5055232;28;20211;-81
2023/11/24 10:47:53;;;;;;;1.90;0.90;;;;;;;5.42;83.77;99596.31;5054552;28;20255;-80
2023/11/24 10:50:26;;;;;;;5.23;1.17;;;;;;;5.64;83.29;99598.66;5054391;28;20193;-81
2023/11/24 10:53:03;;;;;;;3.77;0.90;;;;;;;5.53;82.42;99599.66;5054320;28;20242;-80
2023/11/24 10:55:30;;;;;;;4.90;1.40;;;;;;;5.37;81.97;99629.16;5055801;28;20209;-80
2023/11/24 10:58:01;;;;;;;7.63;1.10;;;;;;;5.47;81.84;99622.13;5053896;28;20257;-81
2023/11/24 11:00:28;;;;;;;4.87;1.20;;;;;;;5.71;81.01;99634.81;5054765;28;20225;-83
2023/11/24 11:02:55;;;;;;;4.10;0.90;;;;;;;5.66;81.39;99646.94;5054956;28;20213;-84
2023/11/24 11:05:33;;;;;;;5.00;1.23;;;;;;;5.69;82.68;99641.75;5069960;28;20248;-82
2023/11/24 11:08:06;;;;;;;5.83;1.20;;;;;;;5.85;81.03;99629.47;5071506;28;20253;-82
2023/11/24 11:10:44;;;;;;;3.67;1.17;;;;;;;5.45;81.21;99644.59;5073612;28;20191;-81
2023/11/24 11:13:14;;;;;;;5.33;1.53;;;;;;;5.67;82.33;99624.50;5074498;28;20203;-81
2023/11/24 11:15:40;;;;;;;5.53;1.60;;;;;;;5.70;80.78;99614.13;5073566;28;20194;-82
2023/11/24 11:18:08;;;;;;;4.23;1.27;;;;;;;5.88;81.68;99607.84;5073556;28;20226;-82
2023/11/24 11:20:38;;;;;;;5.47;1.30;;;;;;;5.85;82.11;99598.38;5073964;28;20234;-81
2023/11/24 11:23:05;;;;;;;6.67;1.47;;;;;;;5.76;82.48;99586.41;5074036;28;20207;-81
2023/11/24 11:25:43;;;;;;;5.10;1.33;;;;;;;5.78;81.09;99594.16;5074828;28;20239;-81
2023/11/24 11:28:42;;;;;;;4.70;1.00;;;;;;;5.95;79.61;99614.69;5070251;28;20237;-83
2023/11/24 11:31:33;;;;;;;4.53;1.10;;;;;;;6.08;79.83;99620.56;5058329;28;20655;-83
2023/11/24 11:34:12;;;;;;;3.37;0.70;;;;;;;6.11;77.48;99646.44;5059099;28;20206;-82
2023/11/24 11:36:50;;;;;;;7.30;1.57;;;;;;;6.28;78.62;99679.88;5056794;28;20210;-82
2023/11/24 11:39:20;;;;;;;4.43;1.10;;;;;;;6.08;77.56;99698.28;5056408;28;20210;-82
2023/11/24 11:41:49;;;;;;;3.93;1.10;;;;;;;6.11;76.63;99696.50;5055822;28;20223;-82